Time;durP1;ratioP1;P1;durP2;ratioP2;P2;SDS_P1;SDS_P2;PMS_P1;PMS_P2;Temp;Humidity;BMP_temperature;BMP_pressure;BME280_temperature;BME280_humidity;BME280_pressure;Samples;Min_cycle;Max_cycle;Signal;HPM_P1;HPM_P2
2022/01/14 00:01:16;;;;;;;13.45;7.93;;;-3.80;99.90;;;;;;5072851;28;20066;-77
2022/01/14 00:03:42;;;;;;;16.95;8.07;;;-3.80;99.90;;;;;;5072640;28;20379;-78
2022/01/14 00:06:08;;;;;;;15.30;7.03;;;-3.80;99.90;;;;;;5072657;28;20024;-76
2022/01/14 00:08:34;;;;;;;21.38;8.00;;;-3.80;99.90;;;;;;5071509;28;20021;-77
2022/01/14 00:11:02;;;;;;;19.08;7.82;;;-3.80;99.90;;;;;;5071414;28;20056;-75
2022/01/14 00:13:50;;;;;;;15.95;8.48;;;-3.80;99.90;;;;;;5072625;28;20012;-76
2022/01/14 00:16:17;;;;;;;18.00;7.05;;;-3.80;99.90;;;;;;5072219;28;20085;-77
2022/01/14 00:18:43;;;;;;;12.88;7.28;;;-3.80;99.90;;;;;;5072475;28;20095;-78
2022/01/14 00:21:09;;;;;;;17.33;7.20;;;-3.90;99.90;;;;;;5072511;28;20112;-78
2022/01/14 00:23:39;;;;;;;15.73;7.43;;;-3.90;99.90;;;;;;5072344;28;20075;-78
2022/01/14 00:34:16;;;;;;;20.50;7.72;;;-3.90;99.90;;;;;;5072372;28;20055;-77
2022/01/14 00:36:43;;;;;;;20.25;9.13;;;-3.90;99.90;;;;;;5070697;28;20476;-78
2022/01/14 00:39:10;;;;;;;18.05;8.30;;;-3.90;99.90;;;;;;5072017;28;20021;-77
2022/01/14 00:41:36;;;;;;;19.38;9.15;;;-3.90;99.90;;;;;;5071002;28;20415;-77
2022/01/14 00:44:07;;;;;;;21.35;8.63;;;-3.90;99.90;;;;;;5072041;28;20024;-77
2022/01/14 00:46:32;;;;;;;19.10;8.45;;;-3.90;99.90;;;;;;5070974;28;20479;-75
2022/01/14 00:48:58;;;;;;;16.80;8.52;;;-3.90;99.90;;;;;;5072119;28;20150;-78
2022/01/14 00:51:24;;;;;;;15.68;8.55;;;-3.80;99.90;;;;;;5070592;28;20078;-77
2022/01/14 00:53:50;;;;;;;16.70;8.38;;;-3.80;99.90;;;;;;5070603;28;20031;-77
2022/01/14 00:56:30;;;;;;;17.38;8.23;;;-3.80;99.90;;;;;;5071016;28;20036;-78
2022/01/14 00:59:14;;;;;;;17.27;8.18;;;-3.80;99.90;;;;;;5072114;28;20021;-75
2022/01/14 01:01:48;;;;;;;17.65;7.93;;;-3.80;99.90;;;;;;5071923;28;20017;-78
2022/01/14 01:04:20;;;;;;;19.08;8.23;;;-3.80;99.90;;;;;;5071879;28;20021;-75
2022/01/14 01:06:48;;;;;;;20.55;9.32;;;-3.80;99.90;;;;;;5071956;28;20024;-77
2022/01/14 01:09:15;;;;;;;15.90;8.90;;;-3.80;99.90;;;;;;5070683;28;20503;-76
2022/01/14 01:11:52;;;;;;;17.33;9.07;;;-3.90;99.90;;;;;;5071760;28;20019;-77
2022/01/14 01:14:38;;;;;;;16.92;8.35;;;-3.90;99.90;;;;;;5071794;28;20123;-76
2022/01/14 01:17:04;;;;;;;18.35;8.43;;;-3.90;99.90;;;;;;5070417;28;20162;-77
2022/01/14 01:19:30;;;;;;;16.73;7.85;;;-3.90;99.90;;;;;;5071889;28;20099;-76
2022/01/14 01:21:56;;;;;;;14.38;6.97;;;-3.90;99.90;;;;;;5071940;28;20039;-78
2022/01/14 01:24:22;;;;;;;20.35;8.65;;;-3.90;99.90;;;;;;5071806;28;20032;-76
2022/01/14 01:26:50;;;;;;;18.85;8.95;;;-3.90;99.90;;;;;;5070615;28;20025;-77
2022/01/14 01:31:53;;;;;;;15.70;7.72;;;-4.00;99.90;;;;;;5071556;28;20090;-75
2022/01/14 01:34:21;;;;;;;17.15;7.68;;;-4.00;99.90;;;;;;5070396;28;20035;-77
2022/01/14 01:36:50;;;;;;;18.27;9.32;;;-4.00;99.90;;;;;;5070163;28;20043;-78
2022/01/14 01:39:18;;;;;;;20.75;8.68;;;-4.00;99.90;;;;;;5070311;28;20024;-77
2022/01/14 01:41:53;;;;;;;22.33;9.93;;;-4.00;99.90;;;;;;5071738;28;20487;-76
2022/01/14 01:44:21;;;;;;;19.35;8.88;;;-4.00;99.90;;;;;;5071570;28;20021;-77
2022/01/14 01:46:48;;;;;;;22.60;9.50;;;-4.00;99.90;;;;;;5070290;28;20032;-75
2022/01/14 01:49:16;;;;;;;20.35;8.57;;;-4.00;99.90;;;;;;5071643;28;20020;-76
2022/01/14 01:51:44;;;;;;;20.45;8.75;;;-4.00;99.90;;;;;;5070221;28;20104;-76
2022/01/14 01:54:10;;;;;;;14.43;7.55;;;-4.00;99.90;;;;;;5070190;28;20464;-76
2022/01/14 01:56:36;;;;;;;15.27;8.68;;;-4.00;99.90;;;;;;5071638;28;20032;-77
2022/01/14 01:59:02;;;;;;;18.60;8.85;;;-4.00;99.90;;;;;;5070117;28;20363;-76
2022/01/14 02:01:28;;;;;;;17.83;8.43;;;-4.00;99.90;;;;;;5070162;28;20464;-76
2022/01/14 02:03:55;;;;;;;17.73;8.23;;;-4.00;99.90;;;;;;5071765;28;20108;-76
2022/01/14 02:06:22;;;;;;;17.08;7.95;;;-4.10;99.90;;;;;;5071410;28;20012;-79
2022/01/14 02:08:48;;;;;;;12.82;7.22;;;-4.10;99.90;;;;;;5072571;28;20047;-76
2022/01/14 02:11:14;;;;;;;15.40;7.35;;;-4.10;99.90;;;;;;5074876;28;20028;-76
2022/01/14 02:13:41;;;;;;;14.65;7.15;;;-4.10;99.90;;;;;;5073861;28;20017;-76
2022/01/14 02:23:51;;;;;;;12.98;6.68;;;-4.20;99.90;;;;;;5074841;28;20036;-77
2022/01/14 02:26:18;;;;;;;13.05;6.70;;;-4.20;99.90;;;;;;5073522;28;20036;-77
2022/01/14 02:28:46;;;;;;;14.57;6.35;;;-4.10;99.90;;;;;;5074326;28;20048;-76
2022/01/14 02:31:12;;;;;;;14.82;7.55;;;-4.20;99.90;;;;;;5074373;28;20060;-76
2022/01/14 02:33:37;;;;;;;14.82;7.03;;;-4.20;99.90;;;;;;5074452;28;20052;-77
2022/01/14 02:36:04;;;;;;;14.60;6.80;;;-4.20;99.90;;;;;;5074405;28;20050;-77
2022/01/14 02:38:30;;;;;;;12.38;6.95;;;-4.20;99.90;;;;;;5073178;28;20119;-77
2022/01/14 02:40:57;;;;;;;15.82;7.28;;;-4.20;99.90;;;;;;5074384;28;20408;-77
2022/01/14 02:43:25;;;;;;;13.13;7.20;;;-4.20;99.90;;;;;;5073157;28;20132;-77
2022/01/14 02:45:53;;;;;;;12.93;6.47;;;-4.20;99.90;;;;;;5074259;28;20020;-77
2022/01/14 02:48:20;;;;;;;13.65;7.75;;;-4.20;99.90;;;;;;5072842;28;20031;-77
2022/01/14 02:51:00;;;;;;;13.90;6.50;;;-4.20;99.90;;;;;;5074453;28;20024;-76
2022/01/14 02:53:42;;;;;;;13.30;7.03;;;-4.20;99.90;;;;;;5072698;28;20062;-76
2022/01/14 02:56:19;;;;;;;12.98;6.57;;;-4.20;99.90;;;;;;5074041;28;20110;-77
2022/01/14 02:58:46;;;;;;;13.13;6.60;;;-4.20;99.90;;;;;;5072765;28;20028;-78
2022/01/14 03:01:17;;;;;;;13.77;7.00;;;-4.30;99.90;;;;;;5072666;28;20028;-78
2022/01/14 03:03:46;;;;;;;14.88;7.28;;;-4.30;99.90;;;;;;5073875;28;20031;-77
2022/01/14 03:06:12;;;;;;;13.18;6.50;;;-4.30;99.90;;;;;;5072526;28;20028;-77
2022/01/14 03:08:40;;;;;;;9.65;5.72;;;-4.30;99.90;;;;;;5073864;28;20027;-78
2022/01/14 03:11:09;;;;;;;13.90;7.00;;;-4.30;99.90;;;;;;5073935;28;20020;-77
2022/01/14 03:13:36;;;;;;;11.48;6.65;;;-4.30;99.90;;;;;;5072282;28;20039;-75
2022/01/14 03:16:03;;;;;;;13.93;7.25;;;-4.30;99.90;;;;;;5072254;28;20032;-76
2022/01/14 03:18:39;;;;;;;11.07;6.70;;;-4.30;99.90;;;;;;5073681;28;20141;-76
2022/01/14 03:21:16;;;;;;;19.55;6.80;;;-4.30;99.90;;;;;;5072660;28;20028;-76
2022/01/14 03:23:47;;;;;;;12.88;7.40;;;-4.30;99.90;;;;;;5072298;28;20024;-76
2022/01/14 03:26:18;;;;;;;11.27;5.78;;;-4.30;99.90;;;;;;5072197;28;20098;-78
2022/01/14 03:28:44;;;;;;;9.98;5.65;;;-4.30;99.90;;;;;;5073306;28;20044;-78
2022/01/14 03:31:10;;;;;;;10.07;5.53;;;-4.30;99.90;;;;;;5072059;28;20025;-78
2022/01/14 03:33:36;;;;;;;14.05;5.53;;;-4.30;99.90;;;;;;5073241;28;20054;-76
2022/01/14 03:36:03;;;;;;;12.45;6.18;;;-4.30;99.90;;;;;;5071947;28;20044;-76
2022/01/14 03:38:29;;;;;;;11.07;5.68;;;-4.30;99.90;;;;;;5073313;28;20024;-78
2022/01/14 03:40:55;;;;;;;13.27;5.68;;;-4.40;99.90;;;;;;5073302;28;20896;-76
2022/01/14 03:43:21;;;;;;;11.02;5.93;;;-4.40;99.90;;;;;;5073286;28;20455;-77
2022/01/14 03:45:49;;;;;;;10.13;4.90;;;-4.40;99.90;;;;;;5071976;28;20021;-75
2022/01/14 03:48:15;;;;;;;11.25;5.38;;;-4.40;99.90;;;;;;5071693;28;20515;-76
2022/01/14 03:50:42;;;;;;;11.65;4.90;;;-4.40;99.90;;;;;;5071765;28;20144;-78
2022/01/14 03:53:10;;;;;;;13.20;5.72;;;-4.40;99.90;;;;;;5073086;28;20027;-77
2022/01/14 03:55:40;;;;;;;11.40;5.35;;;-4.30;99.90;;;;;;5071729;28;20483;-77
2022/01/14 03:58:07;;;;;;;9.65;5.18;;;-4.30;99.90;;;;;;5072897;28;20025;-77
2022/01/14 04:00:33;;;;;;;11.15;6.25;;;-4.30;99.90;;;;;;5072903;28;20028;-76
2022/01/14 04:02:59;;;;;;;9.02;5.47;;;-4.40;99.90;;;;;;5072808;28;20028;-77
2022/01/14 04:05:25;;;;;;;14.85;6.20;;;-4.40;99.90;;;;;;5073041;28;20029;-77
2022/01/14 04:07:50;;;;;;;11.52;5.78;;;-4.30;99.90;;;;;;5072864;28;20474;-78
2022/01/14 04:10:18;;;;;;;14.10;7.53;;;-4.30;99.90;;;;;;5071574;28;20028;-76
2022/01/14 04:17:58;;;;;;;18.00;7.78;;;-4.30;99.90;;;;;;5072820;28;20042;-77
2022/01/14 04:20:24;;;;;;;15.02;6.80;;;-4.30;99.90;;;;;;5071272;28;20058;-76
2022/01/14 04:22:51;;;;;;;14.27;6.82;;;-4.30;99.90;;;;;;5071479;28;20021;-80
2022/01/14 04:25:17;;;;;;;20.60;8.10;;;-4.30;99.90;;;;;;5072507;28;20024;-77
2022/01/14 04:27:42;;;;;;;18.50;8.73;;;-4.30;99.90;;;;;;5072459;28;20052;-75
2022/01/14 04:30:11;;;;;;;17.65;7.88;;;-4.30;99.90;;;;;;5070980;28;20028;-77
2022/01/14 04:32:36;;;;;;;14.55;8.88;;;-4.30;99.90;;;;;;5070986;28;20028;-78
2022/01/14 04:35:02;;;;;;;16.52;8.50;;;-4.30;99.90;;;;;;5070906;28;20021;-76
2022/01/14 04:37:28;;;;;;;13.60;8.73;;;-4.40;99.90;;;;;;5070923;28;20047;-78
2022/01/14 04:39:54;;;;;;;17.85;9.73;;;-4.30;99.90;;;;;;5072142;28;20028;-78
2022/01/14 04:42:19;;;;;;;17.77;8.43;;;-4.40;99.90;;;;;;5072216;28;20032;-76
2022/01/14 04:44:45;;;;;;;23.77;10.57;;;-4.40;99.90;;;;;;5070744;28;20021;-76
2022/01/14 04:47:29;;;;;;;20.25;10.35;;;-4.40;99.90;;;;;;5072009;28;20396;-77
2022/01/14 04:49:55;;;;;;;22.27;10.18;;;-4.40;99.90;;;;;;5070863;28;20032;-77
2022/01/14 04:52:21;;;;;;;16.05;8.07;;;-4.30;99.90;;;;;;5070714;28;20029;-78
2022/01/14 04:54:46;;;;;;;22.17;10.75;;;-4.30;99.90;;;;;;5072160;28;20028;-76
2022/01/14 04:57:16;;;;;;;19.25;10.10;;;-4.30;99.90;;;;;;5072044;28;20498;-76
2022/01/14 04:59:46;;;;;;;14.88;7.80;;;-4.20;99.90;;;;;;5071011;28;20135;-77
2022/01/14 05:02:13;;;;;;;22.38;11.05;;;-4.20;99.90;;;;;;5071055;28;20036;-76
2022/01/14 05:04:40;;;;;;;22.63;10.70;;;-4.20;99.90;;;;;;5071095;28;20012;-75
2022/01/14 05:07:09;;;;;;;17.52;8.70;;;-3.30;99.90;;;;;;5074308;28;20024;-78
2022/01/14 05:09:40;;;;;;;20.80;10.20;;;-3.20;99.90;;;;;;5070982;28;20021;-76
2022/01/14 05:12:09;;;;;;;22.38;9.68;;;-3.30;99.90;;;;;;5071068;28;20054;-74
2022/01/14 05:14:35;;;;;;;17.83;9.70;;;-3.50;99.90;;;;;;5070781;28;20087;-75
2022/01/14 05:17:01;;;;;;;23.92;10.15;;;-3.60;99.90;;;;;;5072052;28;20037;-75
2022/01/14 05:19:27;;;;;;;19.35;10.32;;;-3.70;99.90;;;;;;5072136;28;20017;-75
2022/01/14 05:21:53;;;;;;;19.08;9.18;;;-3.80;99.90;;;;;;5071989;28;20122;-74
2022/01/14 05:24:18;;;;;;;16.30;9.45;;;-3.80;99.90;;;;;;5071089;28;20456;-74
2022/01/14 05:26:44;;;;;;;22.73;9.77;;;-3.90;99.90;;;;;;5071992;28;20052;-76
2022/01/14 05:29:10;;;;;;;16.50;8.73;;;-4.00;99.90;;;;;;5070517;28;20042;-74
2022/01/14 05:31:48;;;;;;;22.05;10.55;;;-4.00;99.90;;;;;;5070648;28;20036;-76
2022/01/14 05:34:14;;;;;;;15.02;8.70;;;-4.00;99.90;;;;;;5070620;28;20475;-74
2022/01/14 05:36:40;;;;;;;17.20;8.60;;;-4.10;99.90;;;;;;5070540;28;20059;-74
2022/01/14 05:39:09;;;;;;;16.20;8.20;;;-4.10;99.90;;;;;;5071678;28;20071;-77
2022/01/14 05:41:35;;;;;;;17.85;9.93;;;-4.10;99.90;;;;;;5071858;28;20111;-75
2022/01/14 05:44:01;;;;;;;17.83;9.23;;;-4.10;99.90;;;;;;5074646;28;20379;-74
2022/01/14 05:46:28;;;;;;;20.17;10.70;;;-4.20;99.90;;;;;;5075530;28;20032;-75
2022/01/14 05:48:54;;;;;;;20.75;10.60;;;-4.20;99.90;;;;;;5075716;28;20021;-75
2022/01/14 05:51:19;;;;;;;18.48;10.75;;;-4.10;99.90;;;;;;5074360;28;20389;-77
2022/01/14 05:53:45;;;;;;;18.63;9.60;;;-4.10;99.90;;;;;;5075596;28;20491;-76
2022/01/14 05:56:11;;;;;;;20.65;9.90;;;-4.10;99.90;;;;;;5075428;28;20026;-75
2022/01/14 05:58:36;;;;;;;21.70;10.15;;;-4.20;99.90;;;;;;5074028;28;20071;-74
2022/01/14 06:01:02;;;;;;;20.60;9.15;;;-4.20;99.90;;;;;;5075366;28;20025;-74
2022/01/14 06:03:28;;;;;;;25.58;10.18;;;-4.10;99.90;;;;;;5075345;28;20094;-75
2022/01/14 06:05:54;;;;;;;20.95;10.25;;;-4.10;99.90;;;;;;5075243;28;20536;-74
2022/01/14 06:08:19;;;;;;;24.88;10.27;;;-4.10;99.90;;;;;;5073865;28;20487;-74
2022/01/14 06:10:45;;;;;;;23.48;11.90;;;-4.20;99.90;;;;;;5073853;28;20024;-75
2022/01/14 06:13:11;;;;;;;23.33;11.43;;;-4.10;99.90;;;;;;5073843;28;20111;-75
2022/01/14 06:15:36;;;;;;;23.73;11.93;;;-4.10;99.90;;;;;;5075086;28;20036;-74
2022/01/14 06:18:02;;;;;;;27.15;14.30;;;-4.10;99.90;;;;;;5073846;28;20064;-74
2022/01/14 06:20:28;;;;;;;29.55;12.70;;;-4.10;99.90;;;;;;5075112;28;20453;-75
2022/01/14 06:22:53;;;;;;;28.48;13.52;;;-4.10;99.90;;;;;;5073268;28;20036;-75
2022/01/14 06:25:20;;;;;;;29.33;12.98;;;-4.10;99.90;;;;;;5073569;28;20021;-75
2022/01/14 06:27:45;;;;;;;32.75;14.52;;;-4.10;99.90;;;;;;5073001;28;20488;-75
2022/01/14 06:30:12;;;;;;;34.72;14.73;;;-4.10;99.90;;;;;;5073297;28;20040;-80
2022/01/14 06:32:41;;;;;;;25.65;13.13;;;-4.10;99.90;;;;;;5074528;28;20096;-74
2022/01/14 06:35:11;;;;;;;23.10;11.63;;;-4.10;99.90;;;;;;5074644;28;20013;-73
2022/01/14 06:37:38;;;;;;;25.80;12.75;;;-4.10;99.90;;;;;;5074869;28;20032;-79
2022/01/14 06:40:04;;;;;;;26.33;13.50;;;-4.20;99.90;;;;;;5073849;28;20024;-79
2022/01/14 06:42:30;;;;;;;20.50;11.30;;;-4.20;99.90;;;;;;5075099;28;20032;-80
2022/01/14 06:44:56;;;;;;;25.58;12.40;;;-4.20;99.90;;;;;;5073554;28;20028;-79
2022/01/14 06:47:22;;;;;;;26.92;12.15;;;-4.20;99.90;;;;;;5073924;28;20016;-83
2022/01/14 06:49:48;;;;;;;27.45;11.90;;;-4.20;99.90;;;;;;5076974;28;20025;-83
2022/01/14 06:52:14;;;;;;;24.40;12.57;;;-4.20;99.90;;;;;;5075104;28;20021;-81
2022/01/14 06:54:40;;;;;;;21.20;11.63;;;-3.40;99.90;;;;;;5073364;28;20047;-82
2022/01/14 06:57:06;;;;;;;28.25;13.52;;;-3.30;99.90;;;;;;5074791;28;20043;-83
2022/01/14 06:59:32;;;;;;;24.75;12.20;;;-3.40;99.90;;;;;;5074810;28;20073;-84
2022/01/14 07:01:59;;;;;;;48.70;21.40;;;-3.50;99.90;;;;;;5074776;28;20060;-83
2022/01/14 07:04:24;;;;;;;28.20;15.95;;;-3.60;99.90;;;;;;5074738;28;20598;-84
2022/01/14 07:06:50;;;;;;;34.65;20.48;;;-3.70;99.90;;;;;;5075871;28;20048;-84
2022/01/14 07:09:16;;;;;;;58.03;26.73;;;-3.80;99.90;;;;;;5076096;28;20036;-80
2022/01/14 07:11:42;;;;;;;57.40;25.45;;;-3.80;99.90;;;;;;5074599;28;20040;-82
2022/01/14 07:14:08;;;;;;;62.38;30.13;;;-3.90;99.90;;;;;;5075813;28;20028;-83
2022/01/14 07:16:34;;;;;;;76.80;41.15;;;-3.80;99.90;;;;;;5075564;28;20028;-83
2022/01/14 07:19:02;;;;;;;46.10;23.23;;;-3.80;99.90;;;;;;5074640;28;20063;-83
2022/01/14 07:21:28;;;;;;;33.78;15.98;;;-3.80;99.90;;;;;;5074317;28;20104;-83
2022/01/14 07:23:54;;;;;;;42.78;22.67;;;-3.80;99.90;;;;;;5075532;28;20044;-84
2022/01/14 07:26:20;;;;;;;43.10;23.90;;;-3.80;99.90;;;;;;5074617;28;20032;-83
2022/01/14 07:28:46;;;;;;;49.05;27.20;;;-3.70;99.90;;;;;;5075271;28;20064;-82
2022/01/14 07:31:12;;;;;;;41.22;22.10;;;-3.60;99.90;;;;;;5074263;28;20025;-82
2022/01/14 07:33:37;;;;;;;44.95;19.55;;;-3.60;99.90;;;;;;5074222;28;20035;-85
2022/01/14 07:36:03;;;;;;;54.15;25.45;;;-3.50;99.90;;;;;;5074901;28;20024;-84
2022/01/14 07:38:29;;;;;;;56.45;27.83;;;-3.50;99.90;;;;;;5074787;28;20033;-84
2022/01/14 07:40:55;;;;;;;60.83;32.33;;;-3.40;99.90;;;;;;5073772;28;20031;-85
2022/01/14 07:43:21;;;;;;;54.83;26.05;;;-3.30;99.90;;;;;;5074348;28;20031;-82
2022/01/14 07:45:48;;;;;;;59.05;27.45;;;-3.30;99.90;;;;;;5075328;28;20040;-82
2022/01/14 07:48:14;;;;;;;65.95;29.27;;;-3.20;99.90;;;;;;5074402;28;20072;-83
2022/01/14 07:50:39;;;;;;;67.07;32.05;;;-3.10;99.90;;;;;;5073618;28;20483;-82
2022/01/14 07:53:05;;;;;;;60.78;28.13;;;-3.10;99.90;;;;;;5074910;28;20017;-83
2022/01/14 07:55:31;;;;;;;48.50;21.40;;;-3.00;99.90;;;;;;5073454;28;20024;-83
2022/01/14 07:57:57;;;;;;;44.50;21.25;;;-3.00;99.90;;;;;;5074592;28;20032;-84
2022/01/14 08:00:23;;;;;;;44.58;20.13;;;-2.90;99.90;;;;;;5074399;28;20376;-83
2022/01/14 08:02:48;;;;;;;37.70;18.98;;;-2.80;99.90;;;;;;5073449;28;20635;-85
2022/01/14 08:05:15;;;;;;;38.67;18.95;;;-2.70;99.90;;;;;;5073702;28;20028;-83
2022/01/14 08:07:46;;;;;;;38.17;18.42;;;-2.60;99.90;;;;;;5074617;28;20097;-84
2022/01/14 08:10:13;;;;;;;35.70;16.33;;;-2.60;99.90;;;;;;5073649;28;20020;-82
2022/01/14 08:12:40;;;;;;;37.50;17.58;;;-2.50;99.90;;;;;;5073328;28;20020;-83
2022/01/14 08:15:10;;;;;;;40.42;17.40;;;-2.40;99.90;;;;;;5073814;28;20137;-80
2022/01/14 08:17:36;;;;;;;34.03;18.25;;;-2.30;99.90;;;;;;5073457;28;20521;-83
2022/01/14 08:20:02;;;;;;;43.25;21.88;;;-2.10;99.90;;;;;;5072745;28;20028;-82
2022/01/14 08:22:28;;;;;;;73.85;37.10;;;-2.00;99.90;;;;;;5072716;28;20027;-81
2022/01/14 08:24:55;;;;;;;62.72;27.20;;;-1.80;99.90;;;;;;5072390;28;20079;-79
2022/01/14 08:27:20;;;;;;;53.38;23.65;;;-1.70;99.90;;;;;;5072141;28;20098;-82
2022/01/14 08:29:47;;;;;;;32.67;16.45;;;-1.50;99.90;;;;;;5072243;28;20032;-79
2022/01/14 08:32:13;;;;;;;27.05;13.93;;;-1.40;99.90;;;;;;5072683;28;20047;-81
2022/01/14 08:34:39;;;;;;;19.20;9.85;;;-1.30;99.90;;;;;;5072367;28;20397;-82
2022/01/14 08:37:05;;;;;;;22.63;10.25;;;-1.20;99.90;;;;;;5073143;28;20037;-82
2022/01/14 08:39:31;;;;;;;18.63;9.55;;;-1.10;99.90;;;;;;5072083;28;20027;-81
2022/01/14 08:41:58;;;;;;;18.77;10.55;;;-1.00;99.90;;;;;;5072377;28;20024;-81
2022/01/14 08:44:24;;;;;;;20.90;10.63;;;-0.90;99.90;;;;;;5071878;28;20017;-82
2022/01/14 08:46:55;;;;;;;21.38;10.35;;;-0.80;99.90;;;;;;5073472;28;20082;-84
2022/01/14 08:49:21;;;;;;;20.15;10.88;;;-0.70;99.90;;;;;;5073614;28;20461;-81
2022/01/14 08:51:48;;;;;;;19.77;9.57;;;-0.60;99.90;;;;;;5073554;28;20028;-80
2022/01/14 08:54:13;;;;;;;17.17;9.40;;;-0.40;99.90;;;;;;5072025;28;20065;-82
2022/01/14 08:56:40;;;;;;;15.38;7.95;;;-0.30;99.90;;;;;;5073163;28;20037;-77
2022/01/14 08:59:05;;;;;;;15.48;8.38;;;-0.10;99.90;;;;;;5072111;28;20020;-82
2022/01/14 09:01:31;;;;;;;19.98;9.05;;;0.00;99.90;;;;;;5072209;28;20029;-82
2022/01/14 09:03:57;;;;;;;15.88;9.40;;;0.20;99.90;;;;;;5072144;28;20033;-83
2022/01/14 09:06:23;;;;;;;15.43;8.43;;;0.30;99.90;;;;;;5072074;28;20021;-82
2022/01/14 09:08:49;;;;;;;18.27;8.30;;;0.40;99.90;;;;;;5072141;28;20115;-80
2022/01/14 09:11:15;;;;;;;16.75;7.97;;;0.50;99.90;;;;;;5071963;28;20031;-82
2022/01/14 09:13:41;;;;;;;17.50;8.85;;;0.70;99.90;;;;;;5072827;28;20029;-82
2022/01/14 09:16:06;;;;;;;15.02;8.43;;;0.80;99.90;;;;;;5071908;28;20054;-82
2022/01/14 09:18:33;;;;;;;15.32;8.48;;;0.90;99.90;;;;;;5074394;28;20032;-81
2022/01/14 09:20:59;;;;;;;12.50;7.20;;;1.10;99.90;;;;;;5077451;28;20432;-83
2022/01/14 09:23:25;;;;;;;15.73;7.35;;;1.20;99.90;;;;;;5076037;28;20028;-84
2022/01/14 09:25:55;;;;;;;12.60;7.88;;;1.50;99.90;;;;;;5075800;28;20028;-79
2022/01/14 09:28:20;;;;;;;14.43;8.85;;;1.60;99.90;;;;;;5075546;28;20045;-82
2022/01/14 09:30:47;;;;;;;19.65;8.35;;;1.80;99.90;;;;;;5076220;28;20047;-80
2022/01/14 09:33:17;;;;;;;20.80;8.85;;;2.00;99.90;;;;;;5076241;28;20027;-83
2022/01/14 09:35:43;;;;;;;16.05;8.60;;;2.10;99.90;;;;;;5075647;28;20028;-83
2022/01/14 09:38:09;;;;;;;14.65;8.57;;;2.20;99.90;;;;;;5076222;28;20062;-81
2022/01/14 09:40:36;;;;;;;14.13;7.78;;;2.40;99.90;;;;;;5075500;28;20048;-82
2022/01/14 09:43:02;;;;;;;14.75;8.25;;;2.60;99.90;;;;;;5075742;28;20028;-82
2022/01/14 09:45:28;;;;;;;15.40;8.70;;;2.70;99.90;;;;;;5075400;28;20423;-79
2022/01/14 09:47:55;;;;;;;12.95;8.32;;;3.00;99.90;;;;;;5075223;28;20031;-82
2022/01/14 09:50:23;;;;;;;20.85;10.55;;;3.10;99.90;;;;;;5076292;28;20082;-82
2022/01/14 09:52:50;;;;;;;22.10;11.35;;;3.20;99.90;;;;;;5075150;28;20186;-83
2022/01/14 09:55:16;;;;;;;33.75;14.32;;;3.50;99.90;;;;;;5075271;28;20123;-80
2022/01/14 09:57:42;;;;;;;18.13;10.45;;;3.70;99.90;;;;;;5074878;28;20067;-84
2022/01/14 10:00:09;;;;;;;21.00;10.65;;;3.70;99.90;;;;;;5075078;28;20416;-82
2022/01/14 10:02:40;;;;;;;19.17;11.38;;;3.80;99.90;;;;;;5074936;28;20056;-82
2022/01/14 10:05:09;;;;;;;26.80;16.17;;;3.90;99.90;;;;;;5075576;28;20530;-84
2022/01/14 10:07:35;;;;;;;21.25;11.88;;;4.00;99.90;;;;;;5076111;28;20440;-84
2022/01/14 10:10:37;;;;;;;15.90;9.43;;;4.20;99.90;;;;;;5075085;28;20071;-82
2022/01/14 10:13:23;;;;;;;18.77;10.98;;;4.30;99.90;;;;;;5031984;28;20024;-81
2022/01/14 10:15:51;;;;;;;19.25;8.57;;;4.30;99.90;;;;;;5074461;28;20029;-81
2022/01/14 10:18:19;;;;;;;24.08;11.85;;;4.40;99.90;;;;;;5074388;28;20494;-83
2022/01/14 10:20:46;;;;;;;19.67;10.88;;;4.30;99.90;;;;;;5075676;28;20078;-81
2022/01/14 10:23:12;;;;;;;17.55;11.73;;;4.30;99.90;;;;;;5074097;28;20090;-78
2022/01/14 10:25:40;;;;;;;22.85;14.27;;;4.40;99.90;;;;;;5075263;28;20422;-79
2022/01/14 10:28:17;;;;;;;17.02;10.23;;;4.60;99.90;;;;;;5073636;28;20053;-78
2022/01/14 10:30:48;;;;;;;15.70;10.60;;;4.90;99.90;;;;;;5072821;28;20025;-74
2022/01/14 10:33:20;;;;;;;22.85;9.93;;;5.10;99.90;;;;;;5074593;28;20468;-75
2022/01/14 10:35:47;;;;;;;25.88;15.75;;;5.20;99.90;;;;;;5074668;28;20048;-76
2022/01/14 10:38:15;;;;;;;41.25;22.42;;;5.40;99.90;;;;;;5074504;28;20025;-77
2022/01/14 10:40:47;;;;;;;39.85;20.63;;;5.50;99.90;;;;;;5073523;28;20024;-74
2022/01/14 10:43:16;;;;;;;44.92;19.23;;;5.40;99.90;;;;;;5074741;28;20112;-74
2022/01/14 10:45:44;;;;;;;34.95;17.08;;;5.50;99.90;;;;;;5073450;28;20028;-75
2022/01/14 10:48:16;;;;;;;18.88;9.43;;;5.50;99.90;;;;;;5074481;28;20025;-75
2022/01/14 10:50:56;;;;;;;42.38;21.05;;;5.50;99.90;;;;;;5074568;28;20067;-75
2022/01/14 10:53:27;;;;;;;39.00;19.10;;;5.60;99.90;;;;;;5074282;28;20025;-76
2022/01/14 10:56:05;;;;;;;22.55;12.32;;;5.60;99.90;;;;;;5073291;28;20048;-74
2022/01/14 10:58:37;;;;;;;23.52;13.52;;;5.80;99.90;;;;;;5074516;28;20024;-79
2022/01/14 11:01:12;;;;;;;15.52;8.13;;;5.90;99.90;;;;;;5072872;28;20071;-79
2022/01/14 11:03:39;;;;;;;11.75;6.43;;;6.00;99.90;;;;;;5072826;28;20380;-79
2022/01/14 11:06:25;;;;;;;10.85;5.88;;;6.10;99.90;;;;;;5072629;28;20028;-79
2022/01/14 11:08:56;;;;;;;;;;;6.20;99.90;;;;;;5073527;28;20024;-78
2022/01/14 11:11:23;;;;;;;36.03;17.23;;;6.30;99.90;;;;;;5072879;28;19904;-81
2022/01/14 11:13:48;;;;;;;14.90;7.95;;;6.50;99.90;;;;;;5073912;28;20480;-79
2022/01/14 11:16:14;;;;;;;13.40;8.80;;;6.60;99.90;;;;;;5072653;28;20032;-79
2022/01/14 11:18:40;;;;;;;14.40;8.02;;;6.80;99.90;;;;;;5072496;28;20383;-79
2022/01/14 11:23:50;;;;;;;14.27;7.75;;;7.00;99.90;;;;;;5074410;28;20151;-79
2022/01/14 11:26:20;;;;;;;10.95;7.50;;;7.20;99.90;;;;;;5074040;28;20116;-79
2022/01/14 11:28:47;;;;;;;12.18;7.53;;;7.20;99.90;;;;;;5072328;28;20139;-79
2022/01/14 11:31:43;;;;;;;11.93;7.18;;;7.40;99.90;;;;;;5073932;28;20017;-79
2022/01/14 11:34:32;;;;;;;14.60;7.18;;;7.40;99.90;;;;;;5060641;28;20391;-78
2022/01/14 11:37:00;;;;;;;11.77;7.35;;;7.60;99.90;;;;;;5063791;28;20044;-80
2022/01/14 11:39:30;;;;;;;12.02;6.53;;;7.70;99.90;;;;;;5072213;28;20024;-80
2022/01/14 11:42:14;;;;;;;12.70;7.07;;;7.80;99.90;;;;;;5071515;28;20035;-81
2022/01/14 11:44:43;;;;;;;9.77;6.30;;;8.00;99.90;;;;;;5072196;28;20021;-80
2022/01/14 11:47:39;;;;;;;11.45;6.07;;;8.20;99.30;;;;;;5071868;28;20518;-80
2022/01/14 11:50:26;;;;;;;10.13;5.97;;;8.40;99.40;;;;;;5071634;28;20027;-80
2022/01/14 11:52:52;;;;;;;19.77;9.68;;;8.50;98.40;;;;;;5071565;28;20040;-82
2022/01/14 11:55:24;;;;;;;12.30;7.13;;;8.60;97.80;;;;;;5073262;28;20016;-78
2022/01/14 11:57:52;;;;;;;10.00;6.05;;;8.70;97.30;;;;;;5071860;28;20111;-79
2022/01/14 12:00:30;;;;;;;12.40;8.10;;;8.80;97.00;;;;;;5072830;28;20141;-81
2022/01/14 12:03:26;;;;;;;15.00;10.07;;;8.80;96.80;;;;;;5071657;28;20153;-79
2022/01/14 12:05:55;;;;;;;10.75;5.80;;;8.80;97.00;;;;;;5071842;28;20025;-80
2022/01/14 12:08:23;;;;;;;10.18;5.90;;;8.90;96.70;;;;;;5072758;28;20054;-79
2022/01/14 12:11:12;;;;;;;12.68;7.18;;;9.00;96.60;;;;;;5071442;28;20028;-79
2022/01/14 12:13:54;;;;;;;7.78;3.97;;;9.10;96.70;;;;;;5060728;28;20065;-79
2022/01/14 12:19:08;;;;;;;8.57;5.82;;;9.20;95.60;;;;;;5080811;28;20122;-87
2022/01/14 12:21:39;;;;;;;8.27;4.13;;;9.30;95.30;;;;;;5074631;28;20021;-87
2022/01/14 12:24:14;;;;;;;12.07;7.47;;;9.30;94.70;;;;;;5074348;28;20027;-86
2022/01/14 12:27:00;;;;;;;16.15;6.90;;;9.40;94.60;;;;;;5074386;28;20085;-87
2022/01/14 12:30:00;;;;;;;6.78;5.32;;;9.40;94.50;;;;;;5072944;28;20046;-87
2022/01/14 12:32:29;;;;;;;5.68;3.53;;;9.50;94.10;;;;;;5074227;28;20033;-86
2022/01/14 12:34:55;;;;;;;9.15;4.10;;;9.60;93.70;;;;;;5075097;28;20027;-86
2022/01/14 12:40:47;;;;;;;5.13;3.28;;;9.70;93.30;;;;;;5050013;22;20053;-87
2022/01/14 12:43:13;;;;;;;6.10;4.73;;;9.70;92.80;;;;;;5035690;28;20044;-86
2022/01/14 12:46:14;;;;;;;10.20;6.05;;;9.80;92.50;;;;;;5040188;28;20025;-85
2022/01/14 12:48:56;;;;;;;7.25;3.42;;;9.80;92.30;;;;;;5016887;28;20052;-85
2022/01/14 12:51:22;;;;;;;12.23;4.90;;;9.80;91.90;;;;;;5003218;28;20022;-87
2022/01/14 12:53:53;;;;;;;10.77;6.28;;;9.90;91.60;;;;;;5003472;28;20385;-87
2022/01/14 12:56:21;;;;;;;8.30;4.80;;;9.90;92.00;;;;;;5002489;28;20440;-87
2022/01/14 12:59:09;;;;;;;6.13;4.28;;;9.90;92.10;;;;;;5007595;28;20022;-87
2022/01/14 13:01:41;;;;;;;5.60;2.80;;;9.90;92.00;;;;;;5007538;28;20028;-88
2022/01/14 13:04:11;;;;;;;3.47;2.65;;;9.90;92.40;;;;;;4998300;28;20451;-86
2022/01/14 13:06:42;;;;;;;5.20;3.13;;;9.90;92.50;;;;;;4998866;28;20108;-85
2022/01/14 13:09:08;;;;;;;7.40;6.47;;;9.90;92.00;;;;;;4997348;28;20022;-82
2022/01/14 13:11:48;;;;;;;7.47;5.80;;;9.80;91.90;;;;;;4997021;28;20030;-83
2022/01/14 13:14:18;;;;;;;5.57;4.22;;;9.80;91.70;;;;;;4997055;28;20430;-85
2022/01/14 13:16:46;;;;;;;9.68;6.20;;;9.70;91.80;;;;;;4996725;28;20460;-85
2022/01/14 13:19:34;;;;;;;6.18;4.32;;;9.70;91.70;;;;;;4996490;28;20032;-78